Marmande-Virazeil Airport

LFDM · Lot-et-Garonne, Nouvelle-Aquitaine, França

História da METAR LFDM · Marmande-Virazeil Airport

Abaixo você vê METARs dos últimos dias. Selecione um ano para navegar pelos METARs mais antigos, a partir do ano 2007.

26 de novembro de 2022

Hora Código Clima Temp. Visibilidade Tecto Vento METAR/SPECI
20:30
V
5 °C 10 km+ - 100° 100° 3 kt SPECI LFBE 261930Z AUTO 10003KT CAVOK 05/05 Q1026 TEMPO 0500 FG VV///
20:30
V
5 °C 10 km+ - 100° 100° 3 kt METAR LFBE 261930Z AUTO 10003KT CAVOK 05/05 Q1026 TEMPO 0500 FG VV///
20:00
I
5 °C 4,1 km - 080° 080° 4 kt METAR LFBE 261900Z AUTO 08004KT 4100 BR NSC 05/05 Q1027 NOSIG
19:30
V
6 °C 10 km+ - Var Var 3 kt METAR LFBE 261830Z AUTO VRB03KT CAVOK 06/05 Q1027 BECMG 4000 BR
19:00
V
8 °C 10 km+ - Var Var 3 kt METAR LFBE 261800Z AUTO VRB03KT CAVOK 08/06 Q1027 BECMG 4000 BR
18:30
V
8 °C 10 km+ - 110° 110° 4 kt METAR LFBE 261730Z AUTO 11004KT CAVOK 08/07 Q1026 BECMG 4000 BR
18:00
V
8 °C 10 km+ - 100° 100° 3 kt METAR LFBE 261700Z AUTO 10003KT CAVOK 08/07 Q1027 NOSIG
17:30
V
8 °C 10 km+ - 080° 080° 4 kt METAR LFBE 261630Z AUTO 08004KT CAVOK 08/07 Q1027 NOSIG
17:00
V
10 °C 10 km+ - 070° 070° 3 kt METAR LFBE 261600Z AUTO 07003KT CAVOK 10/07 Q1027 NOSIG
16:30
V
11 °C 10 km+ - 070° 070° 5 kt METAR LFBE 261530Z AUTO 07005KT CAVOK 11/08 Q1027 NOSIG
16:00
V
12 °C 10 km+ - Var Var 2 kt METAR LFBE 261500Z AUTO VRB02KT CAVOK 12/09 Q1028 NOSIG
15:30
V
11 °C 10 km+ - 070° 070° 8 kt METAR LFBE 261430Z AUTO 07008KT CAVOK 11/09 Q1027 NOSIG
15:00
V
11 °C 10 km+ - 080° 080° 7 kt METAR LFBE 261400Z AUTO 08007KT CAVOK 11/09 Q1028 NOSIG
14:30
V
10 °C 10 km+ - 100° 100° 5 kt METAR LFBE 261330Z AUTO 10005KT CAVOK 10/10 Q1028 NOSIG
14:00
V
9 °C 10 km+ 17.000 ft 080° 080° 4 kt METAR LFBE 261300Z AUTO 08004KT 9999 SCT004 OVC170 09/09 Q1029 NOSIG
13:30
L
8 °C 8 km 200 ft 050° 050° 6 kt METAR LFBE 261230Z AUTO 05006KT 8000 OVC002 08/08 Q1030 BECMG NSC
13:00
L
7 °C 1,5 km - 050° 050° 6 kt METAR LFBE 261200Z AUTO 05006KT 1500 BR VV/// 07/07 Q1030 BECMG CAVOK
12:30
L
7 °C 1,1 km - 050° 050° 6 kt METAR LFBE 261130Z AUTO 05006KT 1200 1100 R27/1500N BR VV/// 07/07 Q1030 BECMG CAVOK
12:00
L
6 °C 800 m - 050° 050° 5 kt METAR LFBE 261100Z AUTO 05005KT 0800 R27/1200U FG VV/// 06/06 Q1031 BECMG 7000 NSW SCT015
11:30
L
6 °C 500 m - 070° 070° 5 kt METAR LFBE 261030Z AUTO 07005KT 0550 0500 R27/0800N FG VV/// 06/06 Q1031 BECMG 7000 NSW SCT015
11:00
L
6 °C 500 m - 060° 060° 5 kt METAR LFBE 261000Z AUTO 06005KT 0500 R27/0700N FG VV/// 06/06 Q1031 BECMG 7000 NSW SCT015
10:30
L
6 °C 600 m - 090° 090° 6 kt METAR LFBE 260930Z AUTO 09006KT 0800 0600 R27/1100N FG VV/// 06/06 Q1031 BECMG 7000 NSW SCT015
10:00
L
5 °C 900 m - 080° 080° 4 kt METAR LFBE 260900Z AUTO 08004KT 0900 R27/1400U FG VV/// 05/05 Q1031 TEMPO 2000 BR
09:30
L
4 °C 800 m - 080° 080° 5 kt METAR LFBE 260830Z AUTO 08005KT 1000 0800 R27/1400D BCFG VV/// 04/04 Q1031 TEMPO 2000 BR
09:00
L
4 °C 1,9 km 200 ft 060° 060° 3 kt METAR LFBE 260800Z AUTO 06003KT 1900 BR OVC002 04/04 Q1031 BECMG VV///
08:30
L
3 °C 1 km - 080° 080° 3 kt METAR LFBE 260730Z AUTO 08003KT 1000 R27/1300U BCFG VV/// 03/03 Q1031 TEMPO 2000 BR
08:00
L
3 °C 1,6 km - 080° 080° 5 kt METAR LFBE 260700Z AUTO 08005KT 1600 BR VV/// 03/03 Q1031 NOSIG
07:30
L
2 °C 1,2 km 200 ft 080° 080° 4 kt METAR LFBE 260630Z AUTO 08004KT 1200 R27/1500D BR OVC002 02/02 Q1031 TEMPO 2000 BR BECMG VV///
07:00
L
3 °C 2,2 km 200 ft 070° 070° 4 kt METAR LFBE 260600Z AUTO 07004KT 2200 BR OVC002 03/03 Q1031 BECMG VV///
06:30
L
3 °C 2,9 km - 050° 050° 4 kt METAR LFBE 260530Z AUTO 05004KT 2900 BR VV/// 03/03 Q1031 NOSIG
06:00
L
2 °C 800 m - 070° 070° 4 kt METAR LFBE 260500Z AUTO 07004KT 0800 R27/1000U FG VV/// 02/02 Q1031
05:30
L
2 °C 650 m - 070° 070° 2 kt METAR LFBE 260430Z AUTO 07002KT 0650 R27/0800N FG VV/// 02/02 Q1030
05:00
L
2 °C 700 m - Var Var 3 kt METAR LFBE 260400Z AUTO VRB03KT 0700 R27/0800U FG VV/// 02/02 Q1030
04:30
L
2 °C 800 m - 060° 060° 2 kt METAR LFBE 260330Z AUTO 06002KT 0800 R27/1000N FG VV/// 02/02 Q1031
04:00
L
2 °C 1,3 km - 060° 060° 4 kt METAR LFBE 260300Z AUTO 06004KT 1500 1300 R27/1800D BR VV/// 02/02 Q1030
03:30
L
2 °C 750 m - 060° 060° 4 kt METAR LFBE 260230Z AUTO 06004KT 0800 0750 R27/0900D FG VV/// 02/02 Q1031
03:00
L
2 °C 550 m - 060° 060° 4 kt METAR LFBE 260200Z AUTO 06004KT 0550 R27/0650D FG VV/// 02/02 Q1031
02:30
L
1 °C 700 m - 070° 070° 5 kt METAR LFBE 260130Z AUTO 07005KT 0900 0700 R27/1000D FG VV/// 01/01 Q1030
02:00
L
2 °C 1,4 km - 060° 060° 4 kt METAR LFBE 260100Z AUTO 06004KT 1400 R27/2000U BR NSC 02/02 Q1031
01:30
L
2 °C 900 m 2.200 ft 070° 070° 4 kt METAR LFBE 260030Z AUTO 07004KT 1000 0900 R27/1300U BCFG FEW004 BKN022 02/02 Q1030
01:00
L
2 °C 1,4 km - 070° 070° 3 kt METAR LFBE 260000Z AUTO 07003KT 2700 1400 R27/P2500 BR NSC 02/02 Q1031
00:30
L
2 °C 700 m - 070° 070° 3 kt METAR LFBE 252330Z AUTO 07003KT 0700 R27/1200U FG FEW006 02/02 Q1030
00:00
L
2 °C 1,1 km - 060° 060° 2 kt METAR LFBE 252300Z AUTO 06002KT 1500 1100 R27/1700D BR NSC 02/02 Q1030

25 de novembro de 2022

Hora Código Clima Temp. Visibilidade Tecto Vento METAR/SPECI
23:30
I
3 °C 1,5 km - 080° 080° 3 kt METAR LFBE 252230Z AUTO 08003KT 1500 BR NSC 03/02 Q1030
23:00
L
3 °C 900 m - 080° 080° 2 kt METAR LFBE 252200Z AUTO 08002KT 1100 0900 R27/1400U BCFG NSC 03/03 Q1030
22:30
L
4 °C 1,3 km - Var Var 2 kt METAR LFBE 252130Z AUTO VRB02KT 3400 1300 R27/1900U BR NSC 04/03 Q1030
22:00
M
4 °C 6 km - 290° 290° 1 kt METAR LFBE 252100Z AUTO 29001KT 6000 NSC 04/04 Q1030 BECMG 0500 FG VV///
21:30
I
5 °C 2,1 km - 010° 010° 1 kt METAR LFBE 252030Z AUTO 01001KT 4400 2100 R27/1400D BR NSC 05/04 Q1029 BECMG 0500 FG VV///
21:00
V
6 °C 10 km+ - 290° 290° 4 kt METAR LFBE 252000Z AUTO 29004KT CAVOK 06/05 Q1029 BECMG 0500 FG VV///
20:30
V
6 °C 10 km+ - 260° 260° 3 kt METAR LFBE 251930Z AUTO 26003KT CAVOK 06/05 Q1029 BECMG 0500 FG VV///
20:00
V
7 °C 10 km+ - 260° 260° 5 kt METAR LFBE 251900Z AUTO 26005KT CAVOK 07/06 Q1028 BECMG 4000 BR
19:30
V
6 °C 10 km+ - 260° 260° 3 kt METAR LFBE 251830Z AUTO 26003KT CAVOK 06/05 Q1028 BECMG 4000 BR
19:00
V
7 °C 10 km+ - 240° 240° 2 kt METAR LFBE 251800Z AUTO 24002KT CAVOK 07/06 Q1027 BECMG 4000 BR
18:30
V
7 °C 10 km+ - 240° 240° 3 kt METAR LFBE 251730Z AUTO 24003KT CAVOK 07/05 Q1027 BECMG 4000 BR
18:00
V
9 °C 10 km+ - 230° 230° 3 kt METAR LFBE 251700Z AUTO 23003KT CAVOK 09/07 Q1026 NOSIG
17:30
V
10 °C 10 km+ - Var Var 2 kt METAR LFBE 251630Z AUTO VRB02KT CAVOK 10/06 Q1026 NOSIG
17:00
V
12 °C 10 km+ - 310° 310° 6 kt METAR LFBE 251600Z AUTO 31006KT CAVOK 12/07 Q1025 NOSIG
16:30
V
13 °C 10 km+ - 310° 310° 5 kt METAR LFBE 251530Z AUTO 31005KT CAVOK 13/07 Q1025 TEMPO 2400 SHRA FEW035CB SCT040TCU
16:00
V
14 °C 10 km+ - 330° 330° 6 kt METAR LFBE 251500Z AUTO 33006KT 300V360 9999 ///CB 14/08 Q1025 TEMPO 2400 SHRA
15:30
V
13 °C 10 km+ - 340° 340° 6 kt METAR LFBE 251430Z AUTO 34006KT 9999 FEW030/// SCT060/// //////CB 13/08 Q1024 TEMPO 2400 SHRA
15:00
V
13 °C 10 km+ - 320° 320° 5 kt METAR LFBE 251400Z AUTO 32005KT 9999 FEW044/// //////CB 13/09 Q1024 TEMPO 2400 SHRA
14:30
V
13 °C 10 km+ - 310° 310° 5 kt METAR LFBE 251330Z AUTO 31005KT 9999 //////CB 13/09 Q1024 TEMPO 2400 SHRA
14:00
V
13 °C 10 km+ 4.500 ft 300° 300° 6 kt METAR LFBE 251300Z AUTO 30006KT 9999 SCT024/// SCT033/// BKN045/// //////TCU 13/10 Q1023 TEMPO 2400 SHRA FEW035CB SCT040TCU
13:30
V
14 °C 10 km+ 3.900 ft 280° 280° 8 kt METAR LFBE 251230Z AUTO 28008KT 9999 FEW016/// SCT025/// BKN039/// ///CB 14/10 Q1023 TEMPO 2400 SHRA
13:00
V
13 °C 10 km+ 3.600 ft 270° 270° 10 kt METAR LFBE 251200Z AUTO 27010KT 9999 SCT018/// BKN036/// BKN180/// ///CB 13/10 Q1023 TEMPO 2400 SHRA
12:30
V
13 °C 10 km+ 15.000 ft 260° 260° 9 kt METAR LFBE 251130Z AUTO 26009KT 9999 SCT014/// BKN150/// BKN180/// ///CB 13/10 Q1023 TEMPO 4000 SHRA
12:00
V
12 °C 10 km+ - 270° 270° 6 kt METAR LFBE 251100Z AUTO 27006KT CAVOK 12/10 Q1023 TEMPO 4000 SHRA BKN025TCU
11:30
V
11 °C 10 km+ 6.600 ft 260° 260° 7 kt METAR LFBE 251030Z AUTO 26007KT 9999 FEW033 BKN066 BKN080 11/10 Q1023 TEMPO 4000 SHRA BKN025TCU
11:00
V
12 °C 10 km+ 3.500 ft 250° 250° 7 kt METAR LFBE 251000Z AUTO 25007KT 9999 SCT030/// BKN035/// BKN041/// //////TCU 12/10 Q1022 TEMPO 4000 SHRA
10:30
V
11 °C 10 km+ 11.000 ft 260° 260° 5 kt METAR LFBE 250930Z AUTO 26005KT 9999 FEW041 SCT068 BKN110 11/10 Q1022 TEMPO 4000 SHRA BKN025TCU
10:00
V
11 °C 10 km+ 9.800 ft 230° 230° 4 kt METAR LFBE 250900Z AUTO 23004KT 200V260 9999 FEW011 SCT074 BKN098 11/10 Q1021 TEMPO 4000 SHRA BKN025TCU
09:30
V
11 °C 10 km+ 7.000 ft Var Var 2 kt METAR LFBE 250830Z AUTO VRB02KT 9999 -RA FEW034/// SCT056/// BKN070/// ///CB 11/10 Q1021 TEMPO 4000 SHRA BKN010
09:00
V
11 °C 10 km+ - Var Var 2 kt METAR LFBE 250800Z AUTO VRB02KT 9999 -RA //////CB 11/10 Q1020 TEMPO 4000 -RA BKN010
08:30
V
11 °C 10 km+ 5.800 ft 240° 240° 6 kt METAR LFBE 250730Z AUTO 24006KT 9999 -RA FEW022/// SCT049/// BKN058/// //////CB 11/10 Q1020 TEMPO 4000 -RA BKN010
08:00
M
10 °C 7 km 5.800 ft 230° 230° 5 kt METAR LFBE 250700Z AUTO 23005KT 7000 -RA SCT021/// SCT033/// OVC058/// ///CB 10/10 Q1019 TEMPO 4000 -RA BKN010
07:30
I
11 °C 4,8 km 3.600 ft 210° 210° 6 kt METAR LFBE 250630Z AUTO 21006KT 4800 RA BR SCT026/// BKN036/// BKN046/// ///CB 11/10 Q1019 TEMPO 0500 FG BKN010
07:00
V
9 °C 8 km 4.000 ft Var Var 2 kt METAR LFBE 250600Z AUTO VRB02KT 8000 -RA SCT025/// BKN040/// BKN054/// ///CB 09/09 Q1018
06:30
V
9 °C 10 km+ 7.000 ft Var Var 2 kt METAR LFBE 250530Z AUTO VRB02KT 9999 -RA FEW029/// SCT052/// OVC070/// ///CB 09/09 Q1018
06:00
M
9 °C 7 km 3.900 ft Var Var 2 kt METAR LFBE 250500Z AUTO VRB02KT 7000 -RA FEW009/// SCT031/// BKN039/// ///CB 09/09 Q1018
05:30
M
9 °C 10 km+ 1.000 ft Var 000° 0 kt METAR LFBE 250430Z AUTO 00000KT 9999 -RA BKN010/// OVC060/// ///CB 09/09 Q1017
05:00
M
9 °C 10 km+ 1.200 ft Var 000° 0 kt METAR LFBE 250400Z AUTO 00000KT 9999 BKN012/// BKN018/// OVC062/// //////TCU 09/08 Q1017
04:30
V
8 °C 10 km+ 6.000 ft Var Var 1 kt METAR LFBE 250330Z AUTO VRB01KT 9999 SCT013 BKN060 OVC084 08/08 Q1017
04:00
V
8 °C 10 km+ 8.200 ft 130° 130° 3 kt METAR LFBE 250300Z AUTO 13003KT 100V160 9999 FEW014 BKN082 BKN100 08/07 Q1017
03:30
V
9 °C 10 km+ 4.100 ft Var Var 2 kt METAR LFBE 250230Z AUTO VRB02KT 9999 SCT019/// SCT032/// BKN041/// //////TCU 09/08 Q1017
03:00
M
9 °C 10 km+ 2.100 ft 070° 070° 4 kt METAR LFBE 250200Z AUTO 07004KT 9999 BKN021 BKN028 BKN043 09/08 Q1017
02:30
V
9 °C 10 km+ - 150° 150° 3 kt METAR LFBE 250130Z AUTO 15003KT 100V200 9999 FEW017 SCT023 09/08 Q1017
02:00
V
9 °C 10 km+ 7.600 ft Var Var 3 kt METAR LFBE 250100Z AUTO VRB03KT 9999 FEW026 BKN076 09/07 Q1016
01:30
M
9 °C 10 km+ 2.100 ft 080° 080° 6 kt METAR LFBE 250030Z AUTO 08006KT 9999 BKN021 OVC082 09/08 Q1016
01:00
M
9 °C 10 km+ 2.000 ft Var Var 3 kt METAR LFBE 250000Z AUTO VRB03KT 9999 BKN020 09/08 Q1016
00:30
V
9 °C 10 km+ - 140° 140° 4 kt METAR LFBE 242330Z AUTO 14004KT 100V180 CAVOK 09/08 Q1016
00:00
V
8 °C 10 km+ - Var Var 2 kt METAR LFBE 242300Z AUTO VRB02KT CAVOK 08/07 Q1016

24 de novembro de 2022

Hora Código Clima Temp. Visibilidade Tecto Vento METAR/SPECI
23:30
V
9 °C 10 km+ - Var Var 2 kt METAR LFBE 242230Z AUTO VRB02KT CAVOK 09/08 Q1016
23:00
V
9 °C 10 km+ - Var Var 3 kt METAR LFBE 242200Z AUTO VRB03KT CAVOK 09/08 Q1016
22:30
V
10 °C 10 km+ - Var Var 3 kt METAR LFBE 242130Z AUTO VRB03KT CAVOK 10/09 Q1015
22:00
V
10 °C 10 km+ - 110° 110° 3 kt METAR LFBE 242100Z AUTO 11003KT CAVOK 10/09 Q1015 NOSIG
21:30
V
10 °C 10 km+ - Var Var 2 kt METAR LFBE 242030Z AUTO VRB02KT CAVOK 10/09 Q1015 NOSIG
21:00
V
10 °C 10 km+ 7.200 ft 090° 090° 3 kt METAR LFBE 242000Z AUTO 09003KT 9999 FEW038 OVC072 10/08 Q1015 NOSIG
20:30
V
10 °C 10 km+ - 100° 100° 2 kt METAR LFBE 241930Z AUTO 10002KT CAVOK 10/08 Q1015 NOSIG
20:00
V
10 °C 10 km+ - 100° 100° 2 kt METAR LFBE 241900Z AUTO 10002KT CAVOK 10/08 Q1015 NOSIG
19:30
V
11 °C 10 km+ - 130° 130° 2 kt METAR LFBE 241830Z AUTO 13002KT CAVOK 11/08 Q1015 NOSIG
19:00
V
12 °C 10 km+ - 270° 270° 4 kt METAR LFBE 241800Z AUTO 27004KT CAVOK 12/08 Q1015 NOSIG
18:30
V
12 °C 10 km+ - Var Var 2 kt METAR LFBE 241730Z AUTO VRB02KT CAVOK 12/08 Q1014 NOSIG
18:00
V
12 °C 10 km+ - 170° 170° 7 kt METAR LFBE 241700Z AUTO 17007KT 120V220 CAVOK 12/08 Q1013 NOSIG
17:30
V
13 °C 10 km+ - 160° 160° 8 kt METAR LFBE 241630Z AUTO 16008KT 120V210 CAVOK 13/08 Q1013 NOSIG
17:00
V
13 °C 10 km+ - 150° 150° 8 kt METAR LFBE 241600Z AUTO 15008KT CAVOK 13/09 Q1013 NOSIG
16:30
V
13 °C 10 km+ - 160° 160° 10 kt METAR LFBE 241530Z AUTO 16010KT CAVOK 13/09 Q1013 NOSIG
16:00
V
13 °C 10 km+ - 150° 150° 7 kt METAR LFBE 241500Z AUTO 15007KT CAVOK 13/09 Q1014 NOSIG
15:30
V
13 °C 10 km+ - 150° 150° 7 kt METAR LFBE 241430Z AUTO 15007KT CAVOK 13/09 Q1014 NOSIG
15:00
V
13 °C 10 km+ - 140° 140° 6 kt METAR LFBE 241400Z AUTO 14006KT 120V190 CAVOK 13/09 Q1014 NOSIG
14:30
V
14 °C 10 km+ - 160° 160° 4 kt METAR LFBE 241330Z AUTO 16004KT 100V200 CAVOK 14/09 Q1015 NOSIG
14:00
V
13 °C 10 km+ - 150° 150° 6 kt METAR LFBE 241300Z AUTO 15006KT 120V190 CAVOK 13/09 Q1015 NOSIG
13:30
V
13 °C 10 km+ - 150° 150° 8 kt METAR LFBE 241230Z AUTO 15008KT CAVOK 13/09 Q1014 NOSIG
13:00
V
13 °C 10 km+ - 140° 140° 9 kt METAR LFBE 241200Z AUTO 14009KT 090V160 CAVOK 13/09 Q1014 NOSIG
12:30
V
12 °C 10 km+ - 130° 130° 8 kt METAR LFBE 241130Z AUTO 13008KT CAVOK 12/09 Q1015 NOSIG
12:00
V
12 °C 10 km+ - 150° 150° 8 kt METAR LFBE 241100Z AUTO 15008KT 120V180 CAVOK 12/09 Q1016 NOSIG
11:30
V
12 °C 10 km+ - 140° 140° 4 kt METAR LFBE 241030Z AUTO 14004KT 100V180 CAVOK 12/10 Q1016 NOSIG
11:00
V
11 °C 10 km+ - 130° 130° 5 kt METAR LFBE 241000Z AUTO 13005KT 090V150 9999 // NSC 11/09 Q1016

Nós e terceiros acompanhamos seu comportamento na internet em nosso site com cookies. Se você continuar, nós assumimos que você concorda com nosso política de cookies.